createdAt,value
2022-11-13T00:01:08.445Z,30.53
2022-11-13T00:03:36.207Z,33.70
2022-11-13T00:06:04.617Z,33.43
2022-11-13T00:08:34.277Z,32.03
2022-11-13T00:11:03.618Z,32.53
2022-11-13T00:13:31.485Z,32.67
2022-11-13T00:16:00.874Z,32.23
2022-11-13T00:18:30.784Z,33.43
2022-11-13T00:20:59.459Z,31.07
2022-11-13T00:23:27.243Z,33.77
2022-11-13T00:25:56.628Z,32.13
2022-11-13T00:28:24.500Z,30.53
2022-11-13T00:30:52.497Z,35.43
2022-11-13T00:33:38.331Z,36.07
2022-11-13T00:36:16.872Z,30.73
2022-11-13T00:38:44.958Z,30.53
2022-11-13T00:41:14.368Z,31.10
2022-11-13T00:43:42.988Z,35.73
2022-11-13T00:46:11.226Z,35.83
2022-11-13T00:48:39.548Z,30.20
2022-11-13T00:51:07.774Z,31.07
2022-11-13T00:53:35.843Z,31.53
2022-11-13T00:56:03.853Z,29.67
2022-11-13T00:58:33.372Z,35.07
2022-11-13T01:01:07.560Z,32.23
2022-11-13T01:03:36.031Z,33.23
2022-11-13T01:06:12.075Z,32.97
2022-11-13T01:08:40.068Z,41.80
2022-11-13T01:11:12.424Z,34.60
2022-11-13T01:13:42.688Z,31.33
2022-11-13T01:16:13.479Z,32.13
2022-11-13T01:18:42.883Z,28.93
2022-11-13T01:21:13.337Z,32.17
2022-11-13T01:23:41.601Z,34.93
2022-11-13T01:26:12.868Z,34.10
2022-11-13T01:28:43.586Z,33.93
2022-11-13T01:31:13.491Z,27.07
2022-11-13T01:33:41.587Z,29.33
2022-11-13T01:36:13.111Z,34.23
2022-11-13T01:38:40.918Z,31.03
2022-11-13T01:41:12.221Z,30.43
2022-11-13T01:43:41.403Z,31.67
2022-11-13T01:46:17.310Z,31.47
2022-11-13T01:48:48.591Z,27.53
2022-11-13T01:51:25.295Z,29.87
2022-11-13T01:53:54.428Z,28.43
2022-11-13T01:56:23.620Z,31.90
2022-11-13T01:58:59.991Z,32.77
2022-11-13T02:01:27.924Z,32.97
2022-11-13T02:03:55.937Z,30.97
2022-11-13T02:06:24.123Z,29.03
2022-11-13T02:08:52.563Z,31.97
2022-11-13T02:11:21.877Z,26.33
2022-11-13T02:13:50.519Z,29.50
2022-11-13T02:16:21.347Z,29.37
2022-11-13T02:18:49.490Z,29.97
2022-11-13T02:21:32.902Z,29.83
2022-11-13T02:24:22.061Z,29.67
2022-11-13T02:26:51.974Z,27.77
2022-11-13T02:29:20.082Z,30.80
2022-11-13T02:31:47.915Z,25.67
2022-11-13T02:34:15.746Z,30.13
2022-11-13T02:36:43.892Z,30.63
2022-11-13T02:39:14.423Z,31.00
2022-11-13T02:41:43.862Z,30.93
2022-11-13T02:44:11.820Z,30.63
2022-11-13T02:46:39.705Z,26.93
2022-11-13T02:49:07.716Z,30.37
2022-11-13T02:51:35.553Z,29.77
2022-11-13T02:54:03.635Z,25.60
2022-11-13T02:56:31.545Z,27.93
2022-11-13T02:59:00.890Z,25.07
2022-11-13T03:01:28.782Z,31.87
2022-11-13T03:03:58.015Z,27.33
2022-11-13T03:06:26.327Z,31.23
2022-11-13T03:08:54.482Z,28.90
2022-11-13T03:11:22.565Z,25.33
2022-11-13T03:13:50.411Z,28.63
2022-11-13T03:16:19.643Z,28.13
2022-11-13T03:18:47.525Z,33.70
2022-11-13T03:21:16.839Z,26.37
2022-11-13T03:23:46.135Z,29.00
2022-11-13T03:26:17.894Z,25.63
2022-11-13T03:28:45.651Z,31.33
2022-11-13T03:31:13.944Z,27.27
2022-11-13T03:33:43.861Z,26.83
2022-11-13T03:36:11.702Z,27.03
2022-11-13T03:38:39.706Z,30.90
2022-11-13T03:41:07.530Z,24.87
2022-11-13T03:43:35.348Z,28.80
2022-11-13T03:46:03.559Z,27.77
2022-11-13T03:48:31.764Z,27.30
2022-11-13T03:51:01.467Z,28.27
2022-11-13T03:53:29.628Z,28.20
2022-11-13T03:55:57.403Z,30.77
2022-11-13T03:58:25.713Z,27.77
2022-11-13T04:00:56.139Z,24.53
2022-11-13T04:03:24.407Z,26.33
2022-11-13T04:05:52.761Z,27.30
2022-11-13T04:08:22.192Z,27.67
2022-11-13T04:10:49.953Z,28.13
2022-11-13T04:13:17.765Z,26.13
2022-11-13T04:15:45.739Z,26.50
2022-11-13T04:18:13.903Z,27.00
2022-11-13T04:20:41.739Z,29.60
2022-11-13T04:23:12.604Z,28.30
2022-11-13T04:25:42.107Z,27.10
2022-11-13T04:28:10.697Z,27.23
2022-11-13T04:30:39.198Z,26.47
2022-11-13T04:33:07.713Z,24.10
2022-11-13T04:35:35.733Z,28.83
2022-11-13T04:38:03.709Z,22.13
2022-11-13T04:40:31.776Z,29.13
2022-11-13T04:43:00.132Z,22.70
2022-11-13T04:45:28.733Z,26.17
2022-11-13T04:47:57.278Z,23.73
2022-11-13T04:50:25.223Z,22.70
2022-11-13T04:52:53.213Z,23.37
2022-11-13T04:55:21.365Z,23.93
2022-11-13T04:57:51.593Z,22.53
2022-11-13T05:00:21.377Z,22.43
2022-11-13T05:02:49.241Z,25.37
2022-11-13T05:05:17.375Z,26.23
2022-11-13T05:07:45.577Z,24.80
2022-11-13T05:10:13.911Z,22.33
2022-11-13T05:12:42.202Z,19.70
2022-11-13T05:15:10.530Z,20.40
2022-11-13T05:17:39.980Z,23.63
2022-11-13T05:20:10.902Z,22.40
2022-11-13T05:22:39.041Z,24.60
2022-11-13T05:25:07.592Z,26.23
2022-11-13T05:27:35.671Z,22.93
2022-11-13T05:30:03.550Z,24.43
2022-11-13T05:32:31.415Z,23.93
2022-11-13T05:35:00.626Z,22.47
2022-11-13T05:37:30.055Z,21.43
2022-11-13T05:39:58.060Z,20.47
2022-11-13T05:42:26.037Z,22.23
2022-11-13T05:44:53.885Z,26.00
2022-11-13T05:47:21.791Z,26.77
2022-11-13T05:49:51.960Z,19.47
2022-11-13T05:52:21.255Z,23.57
2022-11-13T05:54:49.079Z,21.63
2022-11-13T05:57:17.302Z,22.67
2022-11-13T05:59:45.117Z,20.60
2022-11-13T06:02:13.332Z,20.67
2022-11-13T06:04:41.363Z,22.00
2022-11-13T06:07:09.234Z,24.30
2022-11-13T06:09:38.641Z,22.17
2022-11-13T06:12:06.969Z,21.97
2022-11-13T06:14:34.910Z,23.50
2022-11-13T06:17:02.739Z,24.87
2022-11-13T06:19:30.971Z,24.40
2022-11-13T06:21:58.958Z,22.50
2022-11-13T06:24:26.710Z,21.93
2022-11-13T06:26:55.933Z,23.77
2022-11-13T06:29:24.048Z,19.40
2022-11-13T06:31:52.060Z,24.43
2022-11-13T06:34:20.027Z,23.80
2022-11-13T06:36:47.915Z,23.50
2022-11-13T06:39:16.227Z,20.37
2022-11-13T06:41:44.259Z,20.47
2022-11-13T06:44:13.550Z,22.03
2022-11-13T06:46:41.424Z,20.47
2022-11-13T06:49:09.439Z,22.17
2022-11-13T06:51:37.174Z,23.90
2022-11-13T06:54:05.579Z,17.77
2022-11-13T06:56:33.503Z,22.30
2022-11-13T06:59:01.861Z,22.10
2022-11-13T07:01:32.490Z,24.70
2022-11-13T07:04:00.334Z,18.20
2022-11-13T07:06:28.523Z,19.87
2022-11-13T07:08:56.410Z,23.90
2022-11-13T07:11:25.056Z,22.33
2022-11-13T07:13:53.031Z,23.53
2022-11-13T07:16:21.176Z,22.07
2022-11-13T07:18:54.508Z,21.17
2022-11-13T07:21:24.566Z,21.70
2022-11-13T07:23:53.036Z,21.37
2022-11-13T07:26:21.041Z,18.33
2022-11-13T07:28:49.504Z,21.23
2022-11-13T07:31:18.932Z,19.10
2022-11-13T07:33:49.523Z,21.67
2022-11-13T07:36:19.267Z,21.87
2022-11-13T07:38:47.184Z,22.27
2022-11-13T07:41:15.029Z,22.10
2022-11-13T07:43:43.285Z,19.83
2022-11-13T07:46:11.854Z,23.67
2022-11-13T07:48:39.755Z,26.13
2022-11-13T07:51:07.610Z,22.23
2022-11-13T07:53:39.216Z,23.60
2022-11-13T07:56:07.804Z,24.07
2022-11-13T07:58:35.637Z,19.83
2022-11-13T08:01:05.283Z,19.07
2022-11-13T08:03:33.411Z,21.83
2022-11-13T08:06:03.117Z,23.37
2022-11-13T08:08:33.854Z,26.00
2022-11-13T08:11:06.896Z,22.27
2022-11-13T08:13:35.524Z,24.57
2022-11-13T08:16:04.148Z,22.17
2022-11-13T08:18:33.036Z,23.83
2022-11-13T08:21:02.781Z,21.60
2022-11-13T08:23:30.640Z,23.27
2022-11-13T08:25:58.995Z,21.20
2022-11-13T08:28:28.629Z,19.40
2022-11-13T08:30:57.030Z,25.30
2022-11-13T08:33:25.085Z,17.93
2022-11-13T08:35:54.792Z,21.30
2022-11-13T08:38:22.959Z,21.53
2022-11-13T08:40:51.224Z,20.57
2022-11-13T08:43:19.457Z,22.67
2022-11-13T08:45:48.844Z,24.10
2022-11-13T08:48:16.700Z,23.53
2022-11-13T08:50:44.515Z,23.20
2022-11-13T08:53:12.780Z,26.83
2022-11-13T08:55:40.745Z,24.10
2022-11-13T08:58:08.745Z,28.07
2022-11-13T09:00:36.594Z,27.40
2022-11-13T09:03:05.885Z,28.20
2022-11-13T09:05:33.874Z,28.47
2022-11-13T09:08:02.720Z,27.73
2022-11-13T09:10:30.900Z,31.73
2022-11-13T09:12:59.619Z,28.00
2022-11-13T09:15:27.572Z,29.63
2022-11-13T09:17:58.390Z,29.13
2022-11-13T09:20:28.474Z,25.63
2022-11-13T09:23:00.202Z,28.80
2022-11-13T09:25:34.145Z,26.27
2022-11-13T09:28:06.030Z,26.13
2022-11-13T09:30:34.370Z,23.10
2022-11-13T09:33:02.748Z,21.77
2022-11-13T09:35:35.817Z,21.13
2022-11-13T09:38:10.503Z,30.73
2022-11-13T09:40:43.185Z,22.33
2022-11-13T09:43:21.579Z,21.93
2022-11-13T09:45:50.607Z,24.07
2022-11-13T09:48:26.959Z,24.50
2022-11-13T09:50:57.923Z,23.07
2022-11-13T09:53:27.433Z,18.90
2022-11-13T09:56:04.328Z,18.00
2022-11-13T09:58:44.893Z,16.50
2022-11-13T10:01:23.105Z,19.63
2022-11-13T10:04:02.674Z,16.37
2022-11-13T10:06:46.040Z,18.13
2022-11-13T10:09:23.123Z,14.50
2022-11-13T10:11:56.568Z,17.03
2022-11-13T10:14:30.992Z,17.03
2022-11-13T10:17:03.908Z,18.00
2022-11-13T10:19:37.448Z,15.23
2022-11-13T10:22:32.070Z,17.10
2022-11-13T10:25:10.459Z,17.37
2022-11-13T10:27:38.965Z,16.20
2022-11-13T10:30:14.320Z,18.60
2022-11-13T10:32:42.340Z,17.10
2022-11-13T10:35:33.997Z,16.17
2022-11-13T10:38:08.569Z,16.97
2022-11-13T10:40:39.793Z,15.03
2022-11-13T10:43:14.549Z,17.80
2022-11-13T10:45:42.968Z,13.93
2022-11-13T10:48:21.842Z,12.33
2022-11-13T10:50:58.762Z,12.93
2022-11-13T10:53:34.703Z,13.07
2022-11-13T10:56:02.601Z,13.93
2022-11-13T10:58:31.110Z,10.03
2022-11-13T11:00:59.611Z,12.87
2022-11-13T11:03:29.534Z,11.77
2022-11-13T11:05:59.249Z,11.60
2022-11-13T11:08:32.444Z,12.90
2022-11-13T11:11:19.789Z,12.03
2022-11-13T11:13:49.116Z,10.50
2022-11-13T11:16:22.113Z,19.40
2022-11-13T11:18:55.045Z,11.57
2022-11-13T11:21:37.708Z,9.47
2022-11-13T11:24:14.396Z,9.47
2022-11-13T11:26:47.810Z,9.40
2022-11-13T11:29:20.611Z,8.87
2022-11-13T11:31:55.099Z,10.47
2022-11-13T11:34:27.959Z,13.00
2022-11-13T11:37:04.248Z,11.53
2022-11-13T11:39:39.491Z,12.80
2022-11-13T11:42:16.619Z,14.90
2022-11-13T11:45:05.127Z,9.57
2022-11-13T11:47:34.526Z,13.20
2022-11-13T11:50:02.956Z,9.90
2022-11-13T11:52:47.105Z,11.03
2022-11-13T11:56:02.893Z,11.30
2022-11-13T11:59:07.597Z,11.03
2022-11-13T12:01:52.368Z,15.30
2022-11-13T12:04:36.142Z,13.53
2022-11-13T12:07:17.549Z,10.93
2022-11-13T12:09:55.834Z,13.83
2022-11-13T12:12:39.167Z,13.07
2022-11-13T12:15:13.528Z,11.40
2022-11-13T12:17:52.315Z,10.17
2022-11-13T12:20:27.665Z,13.50
2022-11-13T12:23:05.297Z,15.67
2022-11-13T12:25:40.777Z,9.40
2022-11-13T12:28:19.162Z,10.43
2022-11-13T12:31:01.653Z,11.03
2022-11-13T12:33:41.117Z,10.90
2022-11-13T12:36:12.222Z,11.93
2022-11-13T12:38:47.429Z,10.93
2022-11-13T12:41:25.401Z,12.70
2022-11-13T12:44:20.700Z,9.13
2022-11-13T12:46:49.684Z,9.40
2022-11-13T12:49:28.841Z,10.33
2022-11-13T12:51:59.222Z,10.07
2022-11-13T12:54:29.396Z,8.40
2022-11-13T12:57:19.700Z,8.47
2022-11-13T12:59:53.912Z,7.13
2022-11-13T13:02:41.088Z,8.43
2022-11-13T13:05:35.085Z,8.70
2022-11-13T13:08:16.269Z,16.30
2022-11-13T13:11:02.791Z,5.90
2022-11-13T13:13:41.545Z,6.93
2022-11-13T13:16:12.047Z,8.83
2022-11-13T13:18:40.901Z,5.90
2022-11-13T13:21:11.292Z,5.47
2022-11-13T13:23:41.567Z,6.20
2022-11-13T13:26:18.419Z,5.87
2022-11-13T13:28:51.520Z,8.77
2022-11-13T13:31:37.247Z,8.10
2022-11-13T13:34:31.102Z,6.77
2022-11-13T13:37:11.209Z,8.17
2022-11-13T13:39:50.043Z,9.30
2022-11-13T13:42:38.685Z,6.90
2022-11-13T13:45:26.475Z,8.40
2022-11-13T13:47:59.434Z,7.80
2022-11-13T13:50:30.667Z,7.47
2022-11-13T13:53:00.605Z,11.30
2022-11-13T13:55:35.477Z,7.43
2022-11-13T13:58:08.471Z,7.23
2022-11-13T14:00:53.290Z,6.83
2022-11-13T14:03:28.081Z,6.63
2022-11-13T14:05:59.377Z,8.70
2022-11-13T14:08:30.778Z,10.00
2022-11-13T14:10:58.789Z,5.50
2022-11-13T14:13:29.550Z,5.60
2022-11-13T14:16:04.750Z,4.17
2022-11-13T14:18:35.245Z,4.37
2022-11-13T14:21:06.281Z,8.13
2022-11-13T14:23:38.441Z,7.07
2022-11-13T14:26:07.559Z,4.73
2022-11-13T14:28:44.101Z,5.87
2022-11-13T14:31:15.118Z,5.10
2022-11-13T14:33:48.245Z,5.93
2022-11-13T14:36:17.672Z,7.23
2022-11-13T14:38:52.000Z,5.77
2022-11-13T14:41:24.438Z,6.17
2022-11-13T14:43:54.299Z,5.03
2022-11-13T14:46:34.878Z,4.03
2022-11-13T14:49:04.582Z,5.60
2022-11-13T14:51:34.758Z,6.73
2022-11-13T14:54:07.871Z,5.77
2022-11-13T14:56:39.472Z,6.57
2022-11-13T14:59:18.360Z,5.83
2022-11-13T15:01:55.118Z,6.20
2022-11-13T15:04:24.813Z,4.27
2022-11-13T15:06:55.889Z,4.83
2022-11-13T15:09:25.541Z,4.27
2022-11-13T15:11:53.958Z,4.53
2022-11-13T15:14:22.890Z,6.53
2022-11-13T15:16:54.028Z,4.63
2022-11-13T15:19:29.661Z,5.13
2022-11-13T15:22:26.050Z,6.27
2022-11-13T15:24:46.904Z,5.87
2022-11-13T15:27:16.179Z,5.43
2022-11-13T15:29:44.635Z,7.40
2022-11-13T15:32:13.639Z,5.13
2022-11-13T15:34:43.237Z,7.40
2022-11-13T15:37:13.786Z,4.10
2022-11-13T15:39:41.606Z,5.90
2022-11-13T15:42:16.436Z,6.20
2022-11-13T15:44:44.519Z,5.27
2022-11-13T15:47:26.968Z,4.83
2022-11-13T15:50:12.942Z,6.10
2022-11-13T15:52:43.934Z,6.00
2022-11-13T15:55:20.794Z,6.87
2022-11-13T15:57:48.763Z,8.30
2022-11-13T16:00:18.531Z,10.60
2022-11-13T16:02:50.308Z,7.00
2022-11-13T16:05:19.867Z,9.13
2022-11-13T16:07:48.471Z,7.80
2022-11-13T16:10:17.128Z,5.60
2022-11-13T16:12:45.862Z,6.40
2022-11-13T16:15:15.411Z,8.47
2022-11-13T16:17:47.561Z,7.07
2022-11-13T16:20:18.288Z,8.03
2022-11-13T16:22:47.981Z,6.43
2022-11-13T16:25:18.528Z,7.83
2022-11-13T16:27:47.154Z,6.63
2022-11-13T16:30:17.086Z,5.63
2022-11-13T16:32:44.923Z,7.37
2022-11-13T16:35:16.885Z,5.90
2022-11-13T16:37:45.076Z,9.30
2022-11-13T16:40:22.072Z,8.27
2022-11-13T16:42:50.097Z,7.07
2022-11-13T16:45:18.466Z,4.97
2022-11-13T16:47:46.956Z,6.73
2022-11-13T16:50:18.221Z,6.07
2022-11-13T16:52:46.181Z,8.83
2022-11-13T16:55:14.331Z,5.60
2022-11-13T16:57:43.601Z,7.47
2022-11-13T17:00:15.340Z,6.47
2022-11-13T17:02:43.214Z,85.77
2022-11-13T17:05:13.834Z,18.00
2022-11-13T17:07:41.955Z,9.87
2022-11-13T17:13:02.204Z,6.73
2022-11-13T17:15:30.283Z,44.17
2022-11-13T17:17:59.590Z,36.20
2022-11-13T17:20:27.824Z,23.73
2022-11-13T17:22:56.058Z,11.97
2022-11-13T17:25:26.707Z,7.67
2022-11-13T17:27:55.023Z,6.90
2022-11-13T17:30:25.079Z,7.73
2022-11-13T17:32:52.929Z,6.53
2022-11-13T17:35:20.824Z,32.60
2022-11-13T17:37:48.648Z,13.33
2022-11-13T17:40:17.347Z,10.43
2022-11-13T17:42:47.951Z,8.37
2022-11-13T17:45:15.925Z,10.17
2022-11-13T17:47:45.215Z,8.27
2022-11-13T17:50:13.051Z,11.33
2022-11-13T17:52:40.931Z,8.00
2022-11-13T17:55:11.881Z,12.07
2022-11-13T17:57:39.691Z,13.70
2022-11-13T18:00:08.867Z,17.23
2022-11-13T18:02:36.657Z,25.90
2022-11-13T18:05:06.762Z,27.27
2022-11-13T18:07:34.621Z,27.27
2022-11-13T18:10:02.512Z,29.10
2022-11-13T18:12:30.603Z,33.37
2022-11-13T18:14:58.465Z,28.10
2022-11-13T18:17:26.644Z,30.07
2022-11-13T18:20:01.345Z,29.47
2022-11-13T18:22:31.634Z,24.87
2022-11-13T18:25:01.438Z,25.83
2022-11-13T18:27:29.472Z,22.37
2022-11-13T18:29:57.361Z,22.63
2022-11-13T18:32:25.209Z,26.30
2022-11-13T18:34:52.997Z,23.37
2022-11-13T18:37:21.011Z,21.70
2022-11-13T18:39:50.220Z,22.23
2022-11-13T18:42:18.171Z,24.47
2022-11-13T18:44:46.044Z,23.67
2022-11-13T18:47:13.820Z,21.60
2022-11-13T18:49:41.827Z,22.67
2022-11-13T18:52:09.887Z,21.47
2022-11-13T18:54:37.989Z,19.67
2022-11-13T18:57:07.375Z,27.50
2022-11-13T18:59:35.279Z,22.20
2022-11-13T19:02:03.222Z,23.77
2022-11-13T19:04:31.206Z,18.63
2022-11-13T19:06:59.189Z,19.20
2022-11-13T19:09:27.530Z,18.90
2022-11-13T19:11:55.430Z,19.00
2022-11-13T19:14:24.858Z,15.27
2022-11-13T19:16:52.767Z,17.27
2022-11-13T19:19:23.371Z,14.67
2022-11-13T19:21:52.192Z,15.67
2022-11-13T19:24:20.261Z,13.33
2022-11-13T19:26:48.310Z,13.60
2022-11-13T19:29:16.336Z,15.73
2022-11-13T19:31:47.855Z,11.53
2022-11-13T19:34:15.791Z,12.30
2022-11-13T19:36:45.138Z,12.97
2022-11-13T19:39:13.788Z,11.77
2022-11-13T19:41:42.130Z,12.13
2022-11-13T19:44:11.258Z,13.10
2022-11-13T19:46:39.320Z,14.13
2022-11-13T19:49:09.618Z,14.23
2022-11-13T19:51:37.719Z,18.03
2022-11-13T19:54:05.714Z,13.43
2022-11-13T19:56:33.674Z,12.57
2022-11-13T19:59:02.368Z,11.67
2022-11-13T20:01:31.978Z,11.17
2022-11-13T20:04:03.002Z,10.90
2022-11-13T20:06:33.496Z,11.73
2022-11-13T20:09:02.648Z,12.47
2022-11-13T20:11:30.754Z,12.40
2022-11-13T20:13:59.032Z,11.93
2022-11-13T20:16:27.076Z,13.57
2022-11-13T20:18:57.866Z,12.80
2022-11-13T20:21:26.734Z,11.77
2022-11-13T20:23:57.531Z,13.43
2022-11-13T20:26:26.319Z,12.67
2022-11-13T20:28:54.412Z,12.33
2022-11-13T20:31:24.458Z,14.57
2022-11-13T20:33:54.853Z,14.33
2022-11-13T20:36:23.727Z,14.47
2022-11-13T20:38:54.292Z,12.87
2022-11-13T20:41:24.718Z,14.80
2022-11-13T20:43:55.843Z,13.67
2022-11-13T20:46:24.070Z,13.00
2022-11-13T20:48:52.200Z,12.27
2022-11-13T20:51:22.050Z,12.07
2022-11-13T20:53:50.834Z,13.07
2022-11-13T20:56:19.856Z,11.97
2022-11-13T20:58:49.527Z,14.53
2022-11-13T21:01:20.407Z,14.03
2022-11-13T21:03:49.425Z,14.53
2022-11-13T21:06:19.559Z,12.37
2022-11-13T21:08:48.448Z,13.37
2022-11-13T21:11:19.520Z,11.97
2022-11-13T21:13:49.702Z,11.83
2022-11-13T21:16:18.259Z,13.27
2022-11-13T21:18:46.427Z,12.37
2022-11-13T21:21:16.171Z,10.93
2022-11-13T21:23:44.074Z,11.27
2022-11-13T21:26:12.448Z,13.70
2022-11-13T21:28:40.802Z,11.63
2022-11-13T21:31:17.051Z,16.03
2022-11-13T21:33:46.872Z,20.90
2022-11-13T21:36:16.834Z,13.97
2022-11-13T21:38:44.812Z,11.13
2022-11-13T21:41:24.743Z,12.30
2022-11-13T21:43:55.119Z,13.50
2022-11-13T21:46:28.462Z,12.83
2022-11-13T21:48:57.840Z,11.03
2022-11-13T21:51:25.783Z,12.67
2022-11-13T21:53:53.891Z,14.20
2022-11-13T21:56:21.966Z,11.73
2022-11-13T21:58:49.787Z,13.30
2022-11-13T22:01:18.684Z,12.00
2022-11-13T22:03:47.969Z,12.37
2022-11-13T22:06:18.380Z,9.80
2022-11-13T22:08:48.260Z,11.73
2022-11-13T22:11:16.337Z,11.93
2022-11-13T22:13:44.248Z,14.67
2022-11-13T22:16:14.086Z,13.30
2022-11-13T22:18:42.050Z,14.07
2022-11-13T22:21:12.800Z,15.13
2022-11-13T22:23:41.117Z,20.60
2022-11-13T22:26:11.089Z,20.13
2022-11-13T22:28:41.321Z,23.77
2022-11-13T22:31:14.528Z,23.60
2022-11-13T22:33:48.165Z,25.00
2022-11-13T22:36:21.450Z,31.10
2022-11-13T22:38:49.891Z,29.70
2022-11-13T22:41:23.667Z,27.50
2022-11-13T22:43:53.481Z,33.20
2022-11-13T22:46:23.129Z,29.53
2022-11-13T22:48:52.621Z,25.70
2022-11-13T22:51:23.520Z,28.30
2022-11-13T22:53:53.355Z,30.27
2022-11-13T22:56:22.505Z,19.63
2022-11-13T22:58:51.025Z,20.70
2022-11-13T23:01:21.825Z,19.97
2022-11-13T23:03:50.869Z,19.43
2022-11-13T23:06:22.146Z,19.13
2022-11-13T23:08:51.179Z,18.20
2022-11-13T23:11:21.362Z,15.43
2022-11-13T23:13:51.359Z,14.23
2022-11-13T23:16:20.036Z,15.67
2022-11-13T23:18:48.828Z,14.53
2022-11-13T23:21:17.902Z,15.10
2022-11-13T23:23:47.349Z,12.30
2022-11-13T23:26:16.989Z,18.00
2022-11-13T23:28:45.124Z,13.33
2022-11-13T23:31:13.310Z,13.60
2022-11-13T23:33:41.542Z,13.03
2022-11-13T23:36:11.396Z,13.00
2022-11-13T23:38:39.420Z,11.53
2022-11-13T23:41:10.506Z,14.37
2022-11-13T23:46:26.635Z,16.47
2022-11-13T23:48:54.485Z,16.23
2022-11-13T23:51:22.493Z,12.67
2022-11-13T23:53:50.513Z,13.77
2022-11-13T23:56:19.679Z,10.07
2022-11-13T23:58:47.592Z,13.30
